sensor_id;sensor_type;location;lat;lon;timestamp;P1;durP1;ratioP1;P2;durP2;ratioP2
4049;SDS011;2039;50.894;6.888;2023-05-29T00:02:08;71.00;;;6.73;;
4049;SDS011;2039;50.894;6.888;2023-05-29T00:04:33;75.03;;;7.90;;
4049;SDS011;2039;50.894;6.888;2023-05-29T00:07:00;72.87;;;7.77;;
4049;SDS011;2039;50.894;6.888;2023-05-29T00:09:26;69.87;;;7.20;;
4049;SDS011;2039;50.894;6.888;2023-05-29T00:11:53;70.83;;;8.73;;
4049;SDS011;2039;50.894;6.888;2023-05-29T00:14:19;70.67;;;7.47;;
4049;SDS011;2039;50.894;6.888;2023-05-29T00:16:45;73.50;;;9.47;;
4049;SDS011;2039;50.894;6.888;2023-05-29T00:19:12;75.87;;;9.57;;
4049;SDS011;2039;50.894;6.888;2023-05-29T00:21:39;71.70;;;8.30;;
4049;SDS011;2039;50.894;6.888;2023-05-29T00:24:05;69.20;;;8.20;;
4049;SDS011;2039;50.894;6.888;2023-05-29T00:26:31;74.07;;;7.53;;
4049;SDS011;2039;50.894;6.888;2023-05-29T00:28:57;74.80;;;9.07;;
4049;SDS011;2039;50.894;6.888;2023-05-29T00:31:22;72.50;;;8.43;;
4049;SDS011;2039;50.894;6.888;2023-05-29T00:33:49;72.43;;;7.73;;
4049;SDS011;2039;50.894;6.888;2023-05-29T00:36:15;69.23;;;7.20;;
4049;SDS011;2039;50.894;6.888;2023-05-29T00:38:41;72.00;;;7.77;;
4049;SDS011;2039;50.894;6.888;2023-05-29T00:41:07;74.10;;;8.63;;
4049;SDS011;2039;50.894;6.888;2023-05-29T00:43:33;72.23;;;7.60;;
4049;SDS011;2039;50.894;6.888;2023-05-29T00:45:59;71.87;;;8.17;;
4049;SDS011;2039;50.894;6.888;2023-05-29T00:48:25;73.27;;;7.57;;
4049;SDS011;2039;50.894;6.888;2023-05-29T00:50:51;71.50;;;7.13;;
4049;SDS011;2039;50.894;6.888;2023-05-29T00:53:17;74.63;;;7.60;;
4049;SDS011;2039;50.894;6.888;2023-05-29T00:55:43;73.80;;;7.97;;
4049;SDS011;2039;50.894;6.888;2023-05-29T00:58:09;69.80;;;8.27;;
4049;SDS011;2039;50.894;6.888;2023-05-29T01:00:35;72.00;;;8.10;;
4049;SDS011;2039;50.894;6.888;2023-05-29T01:03:02;70.63;;;7.47;;
4049;SDS011;2039;50.894;6.888;2023-05-29T01:05:30;72.90;;;8.83;;
4049;SDS011;2039;50.894;6.888;2023-05-29T01:08:01;71.27;;;7.50;;
4049;SDS011;2039;50.894;6.888;2023-05-29T01:10:27;76.60;;;9.50;;
4049;SDS011;2039;50.894;6.888;2023-05-29T01:13:03;73.30;;;9.47;;
4049;SDS011;2039;50.894;6.888;2023-05-29T01:15:54;74.87;;;8.57;;
4049;SDS011;2039;50.894;6.888;2023-05-29T01:21:14;73.07;;;7.90;;
4049;SDS011;2039;50.894;6.888;2023-05-29T01:26:43;69.77;;;8.97;;
4049;SDS011;2039;50.894;6.888;2023-05-29T01:29:21;73.77;;;9.20;;
4049;SDS011;2039;50.894;6.888;2023-05-29T01:31:48;68.00;;;7.90;;
4049;SDS011;2039;50.894;6.888;2023-05-29T01:34:16;69.17;;;7.50;;
4049;SDS011;2039;50.894;6.888;2023-05-29T01:36:45;72.23;;;9.20;;
4049;SDS011;2039;50.894;6.888;2023-05-29T01:39:13;69.10;;;9.90;;
4049;SDS011;2039;50.894;6.888;2023-05-29T01:41:39;71.77;;;9.97;;
4049;SDS011;2039;50.894;6.888;2023-05-29T01:44:06;70.27;;;11.00;;
4049;SDS011;2039;50.894;6.888;2023-05-29T01:46:37;71.37;;;9.70;;
4049;SDS011;2039;50.894;6.888;2023-05-29T01:49:04;69.27;;;10.27;;
4049;SDS011;2039;50.894;6.888;2023-05-29T01:51:30;71.50;;;9.70;;
4049;SDS011;2039;50.894;6.888;2023-05-29T01:53:56;72.00;;;10.70;;
4049;SDS011;2039;50.894;6.888;2023-05-29T01:56:23;73.43;;;9.57;;
4049;SDS011;2039;50.894;6.888;2023-05-29T01:58:51;68.37;;;9.87;;
4049;SDS011;2039;50.894;6.888;2023-05-29T02:01:19;70.57;;;10.00;;
4049;SDS011;2039;50.894;6.888;2023-05-29T02:03:46;70.87;;;10.67;;
4049;SDS011;2039;50.894;6.888;2023-05-29T02:06:14;69.23;;;9.03;;
4049;SDS011;2039;50.894;6.888;2023-05-29T02:08:40;69.70;;;12.03;;
4049;SDS011;2039;50.894;6.888;2023-05-29T02:11:06;69.20;;;10.00;;
4049;SDS011;2039;50.894;6.888;2023-05-29T02:13:31;70.80;;;12.47;;
4049;SDS011;2039;50.894;6.888;2023-05-29T02:15:57;70.67;;;11.50;;
4049;SDS011;2039;50.894;6.888;2023-05-29T02:18:23;70.70;;;10.13;;
4049;SDS011;2039;50.894;6.888;2023-05-29T02:20:49;75.17;;;12.53;;
4049;SDS011;2039;50.894;6.888;2023-05-29T02:23:15;70.43;;;10.37;;
4049;SDS011;2039;50.894;6.888;2023-05-29T02:25:41;72.70;;;11.80;;
4049;SDS011;2039;50.894;6.888;2023-05-29T02:28:07;68.87;;;12.40;;
4049;SDS011;2039;50.894;6.888;2023-05-29T02:30:32;70.10;;;12.07;;
4049;SDS011;2039;50.894;6.888;2023-05-29T02:32:59;71.90;;;10.60;;
4049;SDS011;2039;50.894;6.888;2023-05-29T02:35:25;75.60;;;11.47;;
4049;SDS011;2039;50.894;6.888;2023-05-29T02:37:51;70.17;;;12.90;;
4049;SDS011;2039;50.894;6.888;2023-05-29T02:40:18;72.83;;;11.23;;
4049;SDS011;2039;50.894;6.888;2023-05-29T02:42:44;71.00;;;11.00;;
4049;SDS011;2039;50.894;6.888;2023-05-29T02:45:10;77.20;;;12.00;;
4049;SDS011;2039;50.894;6.888;2023-05-29T02:47:36;69.33;;;10.70;;
4049;SDS011;2039;50.894;6.888;2023-05-29T02:50:02;71.50;;;10.50;;
4049;SDS011;2039;50.894;6.888;2023-05-29T02:52:29;70.07;;;10.37;;
4049;SDS011;2039;50.894;6.888;2023-05-29T02:54:55;71.17;;;10.23;;
4049;SDS011;2039;50.894;6.888;2023-05-29T02:57:21;68.50;;;9.10;;
4049;SDS011;2039;50.894;6.888;2023-05-29T02:59:47;70.13;;;9.90;;
4049;SDS011;2039;50.894;6.888;2023-05-29T03:02:15;74.03;;;10.10;;
4049;SDS011;2039;50.894;6.888;2023-05-29T03:04:40;72.90;;;9.77;;
4049;SDS011;2039;50.894;6.888;2023-05-29T03:07:06;70.17;;;8.97;;
4049;SDS011;2039;50.894;6.888;2023-05-29T03:09:34;68.70;;;8.20;;
4049;SDS011;2039;50.894;6.888;2023-05-29T03:12:00;70.60;;;8.20;;
4049;SDS011;2039;50.894;6.888;2023-05-29T03:14:29;69.73;;;8.10;;
4049;SDS011;2039;50.894;6.888;2023-05-29T03:16:55;68.87;;;7.73;;
4049;SDS011;2039;50.894;6.888;2023-05-29T03:19:21;69.90;;;8.80;;
4049;SDS011;2039;50.894;6.888;2023-05-29T03:21:47;70.47;;;7.90;;
4049;SDS011;2039;50.894;6.888;2023-05-29T03:24:12;67.67;;;7.93;;
4049;SDS011;2039;50.894;6.888;2023-05-29T03:26:41;67.17;;;6.20;;
4049;SDS011;2039;50.894;6.888;2023-05-29T03:29:07;67.60;;;7.00;;
4049;SDS011;2039;50.894;6.888;2023-05-29T03:31:33;73.60;;;6.27;;
4049;SDS011;2039;50.894;6.888;2023-05-29T03:33:59;67.27;;;6.77;;
4049;SDS011;2039;50.894;6.888;2023-05-29T03:36:24;70.80;;;6.77;;
4049;SDS011;2039;50.894;6.888;2023-05-29T03:38:50;69.40;;;7.10;;
4049;SDS011;2039;50.894;6.888;2023-05-29T03:41:16;75.80;;;7.40;;
4049;SDS011;2039;50.894;6.888;2023-05-29T03:43:42;72.77;;;6.50;;
4049;SDS011;2039;50.894;6.888;2023-05-29T03:46:07;69.07;;;5.67;;
4049;SDS011;2039;50.894;6.888;2023-05-29T03:48:33;70.10;;;7.17;;
4049;SDS011;2039;50.894;6.888;2023-05-29T03:50:59;68.07;;;6.47;;
4049;SDS011;2039;50.894;6.888;2023-05-29T03:53:24;70.20;;;5.20;;
4049;SDS011;2039;50.894;6.888;2023-05-29T03:55:50;69.33;;;5.67;;
4049;SDS011;2039;50.894;6.888;2023-05-29T03:58:16;68.47;;;5.70;;
4049;SDS011;2039;50.894;6.888;2023-05-29T04:00:49;69.90;;;5.87;;
4049;SDS011;2039;50.894;6.888;2023-05-29T04:03:14;71.30;;;6.67;;
4049;SDS011;2039;50.894;6.888;2023-05-29T04:05:40;68.40;;;6.13;;
4049;SDS011;2039;50.894;6.888;2023-05-29T04:08:06;72.83;;;5.53;;
4049;SDS011;2039;50.894;6.888;2023-05-29T04:10:34;67.43;;;7.37;;
4049;SDS011;2039;50.894;6.888;2023-05-29T04:13:02;73.47;;;6.37;;
4049;SDS011;2039;50.894;6.888;2023-05-29T04:15:28;76.20;;;6.70;;
4049;SDS011;2039;50.894;6.888;2023-05-29T04:17:55;73.17;;;6.30;;
4049;SDS011;2039;50.894;6.888;2023-05-29T04:20:21;74.20;;;5.60;;
4049;SDS011;2039;50.894;6.888;2023-05-29T04:22:46;73.30;;;6.00;;
4049;SDS011;2039;50.894;6.888;2023-05-29T04:25:12;71.57;;;5.73;;
4049;SDS011;2039;50.894;6.888;2023-05-29T04:27:38;68.33;;;6.20;;
4049;SDS011;2039;50.894;6.888;2023-05-29T04:30:04;72.03;;;6.13;;
4049;SDS011;2039;50.894;6.888;2023-05-29T04:32:31;70.00;;;6.30;;
4049;SDS011;2039;50.894;6.888;2023-05-29T04:34:58;70.77;;;5.83;;
4049;SDS011;2039;50.894;6.888;2023-05-29T04:37:27;68.20;;;5.13;;
4049;SDS011;2039;50.894;6.888;2023-05-29T04:40:02;68.73;;;5.80;;
4049;SDS011;2039;50.894;6.888;2023-05-29T04:42:31;72.20;;;5.47;;
4049;SDS011;2039;50.894;6.888;2023-05-29T04:44:58;71.20;;;6.03;;
4049;SDS011;2039;50.894;6.888;2023-05-29T04:47:25;67.87;;;4.80;;
4049;SDS011;2039;50.894;6.888;2023-05-29T04:49:51;71.37;;;5.87;;
4049;SDS011;2039;50.894;6.888;2023-05-29T04:52:19;70.90;;;5.30;;
4049;SDS011;2039;50.894;6.888;2023-05-29T04:54:46;70.10;;;5.20;;
4049;SDS011;2039;50.894;6.888;2023-05-29T04:57:12;69.90;;;6.03;;
4049;SDS011;2039;50.894;6.888;2023-05-29T04:59:38;71.80;;;6.00;;
4049;SDS011;2039;50.894;6.888;2023-05-29T05:02:04;70.37;;;5.90;;
4049;SDS011;2039;50.894;6.888;2023-05-29T05:04:29;67.30;;;5.93;;
4049;SDS011;2039;50.894;6.888;2023-05-29T05:06:55;73.03;;;6.50;;
4049;SDS011;2039;50.894;6.888;2023-05-29T05:09:20;71.30;;;5.70;;
4049;SDS011;2039;50.894;6.888;2023-05-29T05:11:46;73.03;;;6.23;;
4049;SDS011;2039;50.894;6.888;2023-05-29T05:14:12;73.53;;;6.23;;
4049;SDS011;2039;50.894;6.888;2023-05-29T05:16:37;73.30;;;5.97;;
4049;SDS011;2039;50.894;6.888;2023-05-29T05:19:03;71.10;;;5.13;;
4049;SDS011;2039;50.894;6.888;2023-05-29T05:21:29;68.73;;;5.33;;
4049;SDS011;2039;50.894;6.888;2023-05-29T05:23:58;73.13;;;6.60;;
4049;SDS011;2039;50.894;6.888;2023-05-29T05:26:24;74.13;;;5.53;;
4049;SDS011;2039;50.894;6.888;2023-05-29T05:28:53;77.60;;;5.23;;
4049;SDS011;2039;50.894;6.888;2023-05-29T05:31:18;71.53;;;5.20;;
4049;SDS011;2039;50.894;6.888;2023-05-29T05:33:44;71.83;;;5.33;;
4049;SDS011;2039;50.894;6.888;2023-05-29T05:36:10;72.97;;;5.00;;
4049;SDS011;2039;50.894;6.888;2023-05-29T05:38:36;73.57;;;5.37;;
4049;SDS011;2039;50.894;6.888;2023-05-29T05:41:02;68.90;;;4.97;;
4049;SDS011;2039;50.894;6.888;2023-05-29T05:43:27;71.87;;;6.33;;
4049;SDS011;2039;50.894;6.888;2023-05-29T05:45:54;70.37;;;5.30;;
4049;SDS011;2039;50.894;6.888;2023-05-29T05:48:19;71.80;;;5.03;;
4049;SDS011;2039;50.894;6.888;2023-05-29T05:50:45;72.73;;;5.20;;
4049;SDS011;2039;50.894;6.888;2023-05-29T05:53:11;72.50;;;5.10;;
4049;SDS011;2039;50.894;6.888;2023-05-29T05:55:36;69.43;;;4.93;;
4049;SDS011;2039;50.894;6.888;2023-05-29T05:58:02;78.07;;;6.30;;
4049;SDS011;2039;50.894;6.888;2023-05-29T06:00:28;68.70;;;4.90;;
4049;SDS011;2039;50.894;6.888;2023-05-29T06:03:00;72.27;;;5.53;;
4049;SDS011;2039;50.894;6.888;2023-05-29T06:05:31;75.10;;;5.00;;
4049;SDS011;2039;50.894;6.888;2023-05-29T06:07:57;69.83;;;5.63;;
4049;SDS011;2039;50.894;6.888;2023-05-29T06:10:22;75.07;;;5.80;;
4049;SDS011;2039;50.894;6.888;2023-05-29T06:12:48;68.43;;;4.73;;
4049;SDS011;2039;50.894;6.888;2023-05-29T06:15:14;80.80;;;6.87;;
4049;SDS011;2039;50.894;6.888;2023-05-29T06:17:39;67.77;;;4.70;;
4049;SDS011;2039;50.894;6.888;2023-05-29T06:20:05;71.67;;;5.30;;
4049;SDS011;2039;50.894;6.888;2023-05-29T06:22:38;69.93;;;5.00;;
4049;SDS011;2039;50.894;6.888;2023-05-29T06:25:05;72.00;;;5.30;;
4049;SDS011;2039;50.894;6.888;2023-05-29T06:27:31;69.60;;;5.10;;
4049;SDS011;2039;50.894;6.888;2023-05-29T06:29:57;77.70;;;6.00;;
4049;SDS011;2039;50.894;6.888;2023-05-29T06:32:25;71.77;;;5.30;;
4049;SDS011;2039;50.894;6.888;2023-05-29T06:34:53;73.23;;;5.20;;
4049;SDS011;2039;50.894;6.888;2023-05-29T06:37:18;69.53;;;5.80;;
4049;SDS011;2039;50.894;6.888;2023-05-29T06:39:53;72.93;;;5.80;;
4049;SDS011;2039;50.894;6.888;2023-05-29T06:42:21;71.40;;;5.90;;
4049;SDS011;2039;50.894;6.888;2023-05-29T06:44:47;76.53;;;5.53;;
4049;SDS011;2039;50.894;6.888;2023-05-29T06:47:12;78.10;;;6.10;;
4049;SDS011;2039;50.894;6.888;2023-05-29T06:49:38;76.33;;;6.10;;
4049;SDS011;2039;50.894;6.888;2023-05-29T06:52:04;88.50;;;7.60;;
4049;SDS011;2039;50.894;6.888;2023-05-29T06:54:29;73.40;;;5.60;;
4049;SDS011;2039;50.894;6.888;2023-05-29T06:56:55;74.50;;;6.17;;
4049;SDS011;2039;50.894;6.888;2023-05-29T06:59:21;77.07;;;5.87;;
4049;SDS011;2039;50.894;6.888;2023-05-29T07:01:47;77.17;;;6.00;;
4049;SDS011;2039;50.894;6.888;2023-05-29T07:04:13;71.97;;;5.80;;
4049;SDS011;2039;50.894;6.888;2023-05-29T07:06:38;72.83;;;6.27;;
4049;SDS011;2039;50.894;6.888;2023-05-29T07:09:04;72.90;;;5.67;;
4049;SDS011;2039;50.894;6.888;2023-05-29T07:11:30;69.07;;;5.77;;
4049;SDS011;2039;50.894;6.888;2023-05-29T07:13:58;74.77;;;7.00;;
4049;SDS011;2039;50.894;6.888;2023-05-29T07:16:24;74.60;;;6.40;;
4049;SDS011;2039;50.894;6.888;2023-05-29T07:18:52;74.10;;;7.17;;
4049;SDS011;2039;50.894;6.888;2023-05-29T07:21:18;74.80;;;7.33;;
4049;SDS011;2039;50.894;6.888;2023-05-29T07:23:45;72.80;;;6.80;;
4049;SDS011;2039;50.894;6.888;2023-05-29T07:26:11;72.97;;;6.30;;
4049;SDS011;2039;50.894;6.888;2023-05-29T07:28:36;75.47;;;6.53;;
4049;SDS011;2039;50.894;6.888;2023-05-29T07:31:02;71.13;;;6.07;;
4049;SDS011;2039;50.894;6.888;2023-05-29T07:33:28;79.63;;;7.10;;
4049;SDS011;2039;50.894;6.888;2023-05-29T07:35:53;74.50;;;7.90;;
4049;SDS011;2039;50.894;6.888;2023-05-29T07:38:19;76.57;;;7.03;;
4049;SDS011;2039;50.894;6.888;2023-05-29T07:40:46;76.10;;;6.80;;
4049;SDS011;2039;50.894;6.888;2023-05-29T07:43:11;71.73;;;7.80;;
4049;SDS011;2039;50.894;6.888;2023-05-29T07:45:38;75.17;;;9.30;;
4049;SDS011;2039;50.894;6.888;2023-05-29T07:48:04;76.90;;;9.57;;
4049;SDS011;2039;50.894;6.888;2023-05-29T07:50:30;77.43;;;8.57;;
4049;SDS011;2039;50.894;6.888;2023-05-29T07:52:55;73.97;;;8.20;;
4049;SDS011;2039;50.894;6.888;2023-05-29T07:55:22;71.40;;;8.20;;
4049;SDS011;2039;50.894;6.888;2023-05-29T07:57:47;75.67;;;9.03;;
4049;SDS011;2039;50.894;6.888;2023-05-29T08:00:14;74.37;;;8.07;;
4049;SDS011;2039;50.894;6.888;2023-05-29T08:02:40;72.90;;;8.73;;
4049;SDS011;2039;50.894;6.888;2023-05-29T08:05:07;77.50;;;9.07;;
4049;SDS011;2039;50.894;6.888;2023-05-29T08:07:34;71.13;;;8.00;;
4049;SDS011;2039;50.894;6.888;2023-05-29T08:10:00;76.57;;;9.53;;
4049;SDS011;2039;50.894;6.888;2023-05-29T08:12:25;69.33;;;8.40;;
4049;SDS011;2039;50.894;6.888;2023-05-29T08:14:51;76.73;;;8.80;;
4049;SDS011;2039;50.894;6.888;2023-05-29T08:17:20;71.60;;;8.63;;
4049;SDS011;2039;50.894;6.888;2023-05-29T08:19:45;75.03;;;9.40;;
4049;SDS011;2039;50.894;6.888;2023-05-29T08:22:12;72.30;;;8.40;;
4049;SDS011;2039;50.894;6.888;2023-05-29T08:24:39;76.37;;;9.50;;
4049;SDS011;2039;50.894;6.888;2023-05-29T08:27:04;70.70;;;7.70;;
4049;SDS011;2039;50.894;6.888;2023-05-29T08:29:30;74.67;;;8.60;;
4049;SDS011;2039;50.894;6.888;2023-05-29T08:31:56;76.80;;;8.23;;
4049;SDS011;2039;50.894;6.888;2023-05-29T08:34:23;75.57;;;8.53;;
4049;SDS011;2039;50.894;6.888;2023-05-29T08:36:48;72.43;;;9.30;;
4049;SDS011;2039;50.894;6.888;2023-05-29T08:39:16;72.10;;;8.67;;
4049;SDS011;2039;50.894;6.888;2023-05-29T08:44:13;76.27;;;11.80;;
4049;SDS011;2039;50.894;6.888;2023-05-29T08:46:40;74.37;;;8.47;;
4049;SDS011;2039;50.894;6.888;2023-05-29T08:49:06;71.67;;;10.17;;
4049;SDS011;2039;50.894;6.888;2023-05-29T08:51:36;77.53;;;9.17;;
4049;SDS011;2039;50.894;6.888;2023-05-29T08:54:03;74.70;;;9.33;;
4049;SDS011;2039;50.894;6.888;2023-05-29T08:56:29;71.40;;;9.80;;
4049;SDS011;2039;50.894;6.888;2023-05-29T08:58:55;72.40;;;10.10;;
4049;SDS011;2039;50.894;6.888;2023-05-29T09:01:22;77.63;;;9.17;;
4049;SDS011;2039;50.894;6.888;2023-05-29T09:04:11;73.80;;;9.27;;
4049;SDS011;2039;50.894;6.888;2023-05-29T09:06:36;80.17;;;9.17;;
4049;SDS011;2039;50.894;6.888;2023-05-29T09:09:02;72.93;;;9.37;;
4049;SDS011;2039;50.894;6.888;2023-05-29T09:11:30;72.17;;;8.20;;
4049;SDS011;2039;50.894;6.888;2023-05-29T09:13:57;73.27;;;9.17;;
4049;SDS011;2039;50.894;6.888;2023-05-29T09:16:24;74.47;;;9.30;;
4049;SDS011;2039;50.894;6.888;2023-05-29T09:18:50;77.77;;;8.70;;
4049;SDS011;2039;50.894;6.888;2023-05-29T09:21:26;76.77;;;8.70;;
4049;SDS011;2039;50.894;6.888;2023-05-29T09:23:53;73.40;;;7.67;;
4049;SDS011;2039;50.894;6.888;2023-05-29T09:26:20;75.77;;;8.67;;
4049;SDS011;2039;50.894;6.888;2023-05-29T09:28:48;72.70;;;6.77;;
4049;SDS011;2039;50.894;6.888;2023-05-29T09:31:14;75.77;;;9.90;;
4049;SDS011;2039;50.894;6.888;2023-05-29T09:33:48;75.90;;;7.90;;
4049;SDS011;2039;50.894;6.888;2023-05-29T09:36:20;76.87;;;8.50;;
4049;SDS011;2039;50.894;6.888;2023-05-29T09:38:50;76.87;;;8.57;;
4049;SDS011;2039;50.894;6.888;2023-05-29T09:41:22;78.47;;;7.53;;
4049;SDS011;2039;50.894;6.888;2023-05-29T09:43:51;79.27;;;8.73;;
4049;SDS011;2039;50.894;6.888;2023-05-29T09:46:20;72.60;;;8.03;;
4049;SDS011;2039;50.894;6.888;2023-05-29T09:48:46;75.47;;;7.47;;
4049;SDS011;2039;50.894;6.888;2023-05-29T09:51:19;71.93;;;6.93;;
4049;SDS011;2039;50.894;6.888;2023-05-29T09:53:50;80.03;;;8.00;;
4049;SDS011;2039;50.894;6.888;2023-05-29T09:56:16;71.27;;;7.90;;
4049;SDS011;2039;50.894;6.888;2023-05-29T09:58:43;81.77;;;10.40;;
4049;SDS011;2039;50.894;6.888;2023-05-29T10:01:13;76.80;;;9.60;;
4049;SDS011;2039;50.894;6.888;2023-05-29T10:03:40;73.40;;;9.70;;
4049;SDS011;2039;50.894;6.888;2023-05-29T10:06:07;73.30;;;9.10;;
4049;SDS011;2039;50.894;6.888;2023-05-29T10:08:45;77.03;;;9.50;;
4049;SDS011;2039;50.894;6.888;2023-05-29T10:11:16;72.93;;;9.70;;
4049;SDS011;2039;50.894;6.888;2023-05-29T10:13:49;73.73;;;9.17;;
4049;SDS011;2039;50.894;6.888;2023-05-29T10:16:19;75.80;;;10.63;;
4049;SDS011;2039;50.894;6.888;2023-05-29T10:18:49;72.47;;;9.23;;
4049;SDS011;2039;50.894;6.888;2023-05-29T10:21:22;73.30;;;8.80;;
4049;SDS011;2039;50.894;6.888;2023-05-29T10:23:51;79.57;;;8.50;;
4049;SDS011;2039;50.894;6.888;2023-05-29T10:26:26;76.80;;;9.07;;
4049;SDS011;2039;50.894;6.888;2023-05-29T10:35:08;86.73;;;9.00;;
4049;SDS011;2039;50.894;6.888;2023-05-29T10:37:53;84.60;;;9.00;;
4049;SDS011;2039;50.894;6.888;2023-05-29T10:40:26;78.63;;;8.83;;
4049;SDS011;2039;50.894;6.888;2023-05-29T10:42:53;79.00;;;8.50;;
4049;SDS011;2039;50.894;6.888;2023-05-29T10:53:30;77.90;;;8.20;;
4049;SDS011;2039;50.894;6.888;2023-05-29T10:55:56;75.37;;;8.60;;
4049;SDS011;2039;50.894;6.888;2023-05-29T10:58:25;72.13;;;8.13;;
4049;SDS011;2039;50.894;6.888;2023-05-29T11:00:51;79.15;;;9.48;;
4049;SDS011;2039;50.894;6.888;2023-05-29T11:03:23;76.03;;;10.13;;
4049;SDS011;2039;50.894;6.888;2023-05-29T11:06:06;73.67;;;9.50;;
4049;SDS011;2039;50.894;6.888;2023-05-29T11:08:45;79.73;;;9.77;;
4049;SDS011;2039;50.894;6.888;2023-05-29T11:11:11;76.33;;;8.70;;
4049;SDS011;2039;50.894;6.888;2023-05-29T11:13:54;77.10;;;8.17;;
4049;SDS011;2039;50.894;6.888;2023-05-29T11:18:55;78.20;;;7.53;;
4049;SDS011;2039;50.894;6.888;2023-05-29T11:24:00;82.77;;;8.10;;
4049;SDS011;2039;50.894;6.888;2023-05-29T11:26:28;83.50;;;7.37;;
4049;SDS011;2039;50.894;6.888;2023-05-29T11:29:01;79.90;;;8.80;;
4049;SDS011;2039;50.894;6.888;2023-05-29T11:31:32;74.87;;;7.57;;
4049;SDS011;2039;50.894;6.888;2023-05-29T11:34:00;72.70;;;6.90;;
4049;SDS011;2039;50.894;6.888;2023-05-29T11:36:30;76.50;;;6.20;;
4049;SDS011;2039;50.894;6.888;2023-05-29T11:38:57;74.03;;;5.93;;
4049;SDS011;2039;50.894;6.888;2023-05-29T11:41:28;72.20;;;5.40;;
4049;SDS011;2039;50.894;6.888;2023-05-29T11:43:57;74.93;;;6.20;;
4049;SDS011;2039;50.894;6.888;2023-05-29T11:46:24;73.00;;;5.80;;
4049;SDS011;2039;50.894;6.888;2023-05-29T11:48:51;73.20;;;5.17;;
4049;SDS011;2039;50.894;6.888;2023-05-29T11:51:17;73.30;;;5.20;;
4049;SDS011;2039;50.894;6.888;2023-05-29T11:53:43;74.20;;;5.30;;
4049;SDS011;2039;50.894;6.888;2023-05-29T11:56:11;72.37;;;5.00;;
4049;SDS011;2039;50.894;6.888;2023-05-29T11:58:37;74.43;;;5.20;;
4049;SDS011;2039;50.894;6.888;2023-05-29T12:01:04;75.77;;;5.27;;
4049;SDS011;2039;50.894;6.888;2023-05-29T12:03:36;79.37;;;5.90;;
4049;SDS011;2039;50.894;6.888;2023-05-29T12:06:05;72.10;;;4.43;;
4049;SDS011;2039;50.894;6.888;2023-05-29T12:08:31;78.17;;;5.30;;
4049;SDS011;2039;50.894;6.888;2023-05-29T12:10:57;73.10;;;5.10;;
4049;SDS011;2039;50.894;6.888;2023-05-29T12:13:23;73.90;;;4.90;;
4049;SDS011;2039;50.894;6.888;2023-05-29T12:15:49;73.27;;;5.53;;
4049;SDS011;2039;50.894;6.888;2023-05-29T12:18:18;75.60;;;5.87;;
4049;SDS011;2039;50.894;6.888;2023-05-29T12:20:44;70.93;;;4.90;;
4049;SDS011;2039;50.894;6.888;2023-05-29T12:23:10;75.20;;;6.00;;
4049;SDS011;2039;50.894;6.888;2023-05-29T12:25:37;73.87;;;5.87;;
4049;SDS011;2039;50.894;6.888;2023-05-29T12:28:03;74.50;;;5.73;;
4049;SDS011;2039;50.894;6.888;2023-05-29T12:30:29;74.87;;;5.90;;
4049;SDS011;2039;50.894;6.888;2023-05-29T12:32:56;73.97;;;5.10;;
4049;SDS011;2039;50.894;6.888;2023-05-29T12:35:22;76.00;;;6.10;;
4049;SDS011;2039;50.894;6.888;2023-05-29T12:40:33;71.97;;;5.80;;
4049;SDS011;2039;50.894;6.888;2023-05-29T12:43:02;77.97;;;5.53;;
4049;SDS011;2039;50.894;6.888;2023-05-29T12:45:32;77.50;;;6.10;;
4049;SDS011;2039;50.894;6.888;2023-05-29T12:48:02;76.43;;;6.23;;
4049;SDS011;2039;50.894;6.888;2023-05-29T12:50:29;74.97;;;5.40;;
4049;SDS011;2039;50.894;6.888;2023-05-29T12:53:05;80.07;;;5.60;;
4049;SDS011;2039;50.894;6.888;2023-05-29T12:55:37;77.27;;;5.30;;
4049;SDS011;2039;50.894;6.888;2023-05-29T12:58:13;73.40;;;5.23;;
4049;SDS011;2039;50.894;6.888;2023-05-29T13:00:44;78.03;;;4.83;;
4049;SDS011;2039;50.894;6.888;2023-05-29T13:03:13;75.77;;;6.03;;
4049;SDS011;2039;50.894;6.888;2023-05-29T13:05:39;80.03;;;5.20;;
4049;SDS011;2039;50.894;6.888;2023-05-29T13:08:07;71.60;;;5.10;;
4049;SDS011;2039;50.894;6.888;2023-05-29T13:10:33;74.63;;;5.57;;
4049;SDS011;2039;50.894;6.888;2023-05-29T13:13:02;77.87;;;5.80;;
4049;SDS011;2039;50.894;6.888;2023-05-29T13:15:28;72.30;;;5.37;;
4049;SDS011;2039;50.894;6.888;2023-05-29T13:17:54;73.20;;;5.80;;
4049;SDS011;2039;50.894;6.888;2023-05-29T13:20:20;77.40;;;5.07;;
4049;SDS011;2039;50.894;6.888;2023-05-29T13:22:46;72.70;;;6.10;;
4049;SDS011;2039;50.894;6.888;2023-05-29T13:25:14;79.23;;;5.80;;
4049;SDS011;2039;50.894;6.888;2023-05-29T13:27:46;72.73;;;5.17;;
4049;SDS011;2039;50.894;6.888;2023-05-29T13:30:14;73.17;;;5.80;;
4049;SDS011;2039;50.894;6.888;2023-05-29T13:32:40;72.17;;;5.40;;
4049;SDS011;2039;50.894;6.888;2023-05-29T13:35:07;75.37;;;6.10;;
4049;SDS011;2039;50.894;6.888;2023-05-29T13:37:33;72.60;;;5.70;;
4049;SDS011;2039;50.894;6.888;2023-05-29T13:40:01;76.77;;;5.60;;
4049;SDS011;2039;50.894;6.888;2023-05-29T13:42:27;79.03;;;6.87;;
4049;SDS011;2039;50.894;6.888;2023-05-29T13:44:52;80.03;;;6.77;;
4049;SDS011;2039;50.894;6.888;2023-05-29T13:47:18;72.27;;;4.90;;
4049;SDS011;2039;50.894;6.888;2023-05-29T13:49:44;72.20;;;5.73;;
4049;SDS011;2039;50.894;6.888;2023-05-29T13:52:10;75.37;;;5.70;;
4049;SDS011;2039;50.894;6.888;2023-05-29T13:54:36;80.27;;;5.80;;
4049;SDS011;2039;50.894;6.888;2023-05-29T13:57:02;75.00;;;5.90;;
4049;SDS011;2039;50.894;6.888;2023-05-29T13:59:28;72.93;;;5.20;;
4049;SDS011;2039;50.894;6.888;2023-05-29T14:01:55;75.27;;;5.47;;
4049;SDS011;2039;50.894;6.888;2023-05-29T14:04:21;73.67;;;6.67;;
4049;SDS011;2039;50.894;6.888;2023-05-29T14:06:46;77.67;;;6.50;;
4049;SDS011;2039;50.894;6.888;2023-05-29T14:09:12;76.37;;;5.87;;
4049;SDS011;2039;50.894;6.888;2023-05-29T14:11:40;72.40;;;5.73;;
4049;SDS011;2039;50.894;6.888;2023-05-29T14:14:06;78.18;;;5.90;;
4049;SDS011;2039;50.894;6.888;2023-05-29T14:16:32;76.50;;;6.20;;
4049;SDS011;2039;50.894;6.888;2023-05-29T14:19:04;73.30;;;6.00;;
4049;SDS011;2039;50.894;6.888;2023-05-29T14:24:30;74.50;;;5.93;;
4049;SDS011;2039;50.894;6.888;2023-05-29T14:27:01;81.47;;;5.80;;
4049;SDS011;2039;50.894;6.888;2023-05-29T14:29:27;71.00;;;4.47;;
4049;SDS011;2039;50.894;6.888;2023-05-29T14:31:55;71.10;;;5.50;;
4049;SDS011;2039;50.894;6.888;2023-05-29T14:37:52;75.57;;;5.20;;
4049;SDS011;2039;50.894;6.888;2023-05-29T14:40:48;74.80;;;5.20;;
4049;SDS011;2039;50.894;6.888;2023-05-29T14:43:26;75.47;;;5.70;;
4049;SDS011;2039;50.894;6.888;2023-05-29T14:45:55;72.20;;;4.77;;
4049;SDS011;2039;50.894;6.888;2023-05-29T14:48:41;76.43;;;5.70;;
4049;SDS011;2039;50.894;6.888;2023-05-29T14:51:32;72.00;;;4.97;;
4049;SDS011;2039;50.894;6.888;2023-05-29T14:55:05;78.63;;;4.70;;
4049;SDS011;2039;50.894;6.888;2023-05-29T14:57:32;70.83;;;4.17;;
4049;SDS011;2039;50.894;6.888;2023-05-29T15:00:07;72.87;;;4.33;;
4049;SDS011;2039;50.894;6.888;2023-05-29T15:02:34;84.07;;;17.77;;
4049;SDS011;2039;50.894;6.888;2023-05-29T15:04:59;75.30;;;5.30;;
4049;SDS011;2039;50.894;6.888;2023-05-29T15:07:25;71.07;;;5.07;;
4049;SDS011;2039;50.894;6.888;2023-05-29T15:09:51;74.67;;;4.80;;
4049;SDS011;2039;50.894;6.888;2023-05-29T15:12:17;75.60;;;4.23;;
4049;SDS011;2039;50.894;6.888;2023-05-29T15:14:43;75.90;;;5.07;;
4049;SDS011;2039;50.894;6.888;2023-05-29T15:17:08;72.30;;;4.70;;
4049;SDS011;2039;50.894;6.888;2023-05-29T15:19:34;78.60;;;5.37;;
4049;SDS011;2039;50.894;6.888;2023-05-29T15:22:00;75.80;;;5.90;;
4049;SDS011;2039;50.894;6.888;2023-05-29T15:24:25;74.73;;;3.97;;
4049;SDS011;2039;50.894;6.888;2023-05-29T15:26:51;74.47;;;4.40;;
4049;SDS011;2039;50.894;6.888;2023-05-29T15:29:17;72.17;;;3.83;;
4049;SDS011;2039;50.894;6.888;2023-05-29T15:31:42;76.30;;;3.87;;
4049;SDS011;2039;50.894;6.888;2023-05-29T15:34:08;77.27;;;4.40;;
4049;SDS011;2039;50.894;6.888;2023-05-29T15:36:34;72.07;;;3.87;;
4049;SDS011;2039;50.894;6.888;2023-05-29T15:39:01;76.10;;;4.30;;
4049;SDS011;2039;50.894;6.888;2023-05-29T15:41:28;72.57;;;3.83;;